04W

Field of Dreams Airport

Hinckley, Minnesota, USA
METAR K04W 191656Z AUTO 33007KT 10SM OVC024 M19/M28 A3040 RMK AO2
Observed Flight Rules
Jan-19 @ 16:56 UTC (21 minutes ago) Marginal Visual Flight Rules
Wind Visibility Clouds
330° at 7 knots 10 miles
  • Overcast at 2,400' AGL
Temperatures Readings
Current -19°C / -2°F
Dewpoint -28°C / -18°F
Humidity 45%
Altimeter 30.4" Hg
Pressure 1029.41 hPa
Elevation 311
METAR K04W 191656Z AUTO 33007KT 10SM OVC024 M19/M28 A3040 RMK AO2
Observed Flight Rules
Jan-19 @ 16:56 UTC
(21 minutes ago)
MVFR
Wind Visibility
330° at 7 knots 10 miles
Clouds
  • Overcast at 2,400' AGL
Temperature Dewpoint
-19°C / -2°F -28°C / -18°F
Humidity Altimeter Pressure
45% 30.4" Hg 1029.41 hPa